createdAt,value
2017-11-16T00:00:39.820Z,40.16
2017-11-16T00:01:49.220Z,40.06
2017-11-16T00:02:58.051Z,40.06
2017-11-16T00:04:06.884Z,40.26
2017-11-16T00:05:15.816Z,39.97
2017-11-16T00:06:24.648Z,39.87
2017-11-16T00:07:33.480Z,39.97
2017-11-16T00:08:42.871Z,40.26
2017-11-16T00:09:51.700Z,39.97
2017-11-16T00:11:00.782Z,39.97
2017-11-16T00:12:09.893Z,39.97
2017-11-16T00:13:18.725Z,39.97
2017-11-16T00:14:27.572Z,40.06
2017-11-16T00:15:36.387Z,39.87
2017-11-16T00:16:45.628Z,39.97
2017-11-16T00:17:54.439Z,39.87
2017-11-16T00:19:03.268Z,40.06
2017-11-16T00:20:12.100Z,40.06
2017-11-16T00:21:20.929Z,39.97
2017-11-16T00:22:30.339Z,40.16
2017-11-16T00:23:39.172Z,40.06
2017-11-16T00:24:47.996Z,40.06
2017-11-16T00:25:56.826Z,40.16
2017-11-16T00:27:05.659Z,40.16
2017-11-16T00:28:15.066Z,40.06
2017-11-16T00:29:23.896Z,39.87
2017-11-16T00:30:33.041Z,40.26
2017-11-16T00:31:41.875Z,40.16
2017-11-16T00:32:50.710Z,40.16
2017-11-16T00:33:59.837Z,40.06
2017-11-16T00:35:08.717Z,40.06
2017-11-16T00:36:17.562Z,40.16
2017-11-16T00:37:26.380Z,40.06
2017-11-16T00:38:35.213Z,40.16
2017-11-16T00:39:44.346Z,39.97
2017-11-16T00:40:53.173Z,40.26
2017-11-16T00:42:02.006Z,40.06
2017-11-16T00:43:10.886Z,39.87
2017-11-16T00:44:19.713Z,40.16
2017-11-16T00:45:28.793Z,40.16
2017-11-16T00:46:37.624Z,39.87
2017-11-16T00:47:46.454Z,40.06
2017-11-16T00:48:55.285Z,39.86
2017-11-16T00:50:04.115Z,39.97
2017-11-16T00:51:12.947Z,39.97
2017-11-16T00:52:22.338Z,39.87
2017-11-16T00:53:31.169Z,40.06
2017-11-16T00:54:40.003Z,39.87
2017-11-16T00:55:48.835Z,39.87
2017-11-16T00:56:57.661Z,39.87
2017-11-16T00:58:06.489Z,40.06
2017-11-16T00:59:15.321Z,40.06
2017-11-16T01:00:24.153Z,39.87
2017-11-16T01:01:32.983Z,40.06
2017-11-16T01:02:42.164Z,40.06
2017-11-16T01:03:50.997Z,40.26
2017-11-16T01:04:59.828Z,40.16
2017-11-16T01:06:08.941Z,40.06
2017-11-16T01:07:17.771Z,40.16
2017-11-16T01:08:27.004Z,40.16
2017-11-16T01:09:35.836Z,40.26
2017-11-16T01:10:44.674Z,40.06
2017-11-16T01:11:53.502Z,40.06
2017-11-16T01:13:02.334Z,40.26
2017-11-16T01:14:11.214Z,39.87
2017-11-16T01:15:20.047Z,39.95
2017-11-16T01:16:28.876Z,39.78
2017-11-16T01:17:37.708Z,40.06
2017-11-16T01:18:46.538Z,40.06
2017-11-16T01:19:55.518Z,39.87
2017-11-16T01:21:04.635Z,40.06
2017-11-16T01:22:13.462Z,40.16
2017-11-16T01:23:22.294Z,40.06
2017-11-16T01:24:31.123Z,40.06
2017-11-16T01:25:40.105Z,40.35
2017-11-16T01:26:49.215Z,40.16
2017-11-16T01:27:58.321Z,39.97
2017-11-16T01:29:07.151Z,40.26
2017-11-16T01:30:15.983Z,39.95
2017-11-16T01:31:25.118Z,40.05
2017-11-16T01:32:33.945Z,39.76
2017-11-16T01:33:42.774Z,40.16
2017-11-16T01:34:51.604Z,39.95
2017-11-16T01:36:00.713Z,39.95
2017-11-16T01:37:09.544Z,40.05
2017-11-16T01:38:19.933Z,39.95
2017-11-16T01:39:28.763Z,39.95
2017-11-16T01:40:37.869Z,39.95
2017-11-16T01:41:46.698Z,39.97
2017-11-16T01:42:55.880Z,40.14
2017-11-16T01:44:04.989Z,39.97
2017-11-16T01:45:14.097Z,39.86
2017-11-16T01:46:22.927Z,39.97
2017-11-16T01:47:31.759Z,39.97
2017-11-16T01:48:40.635Z,39.87
2017-11-16T01:49:49.470Z,40.06
2017-11-16T01:50:58.303Z,39.87
2017-11-16T01:52:07.408Z,39.87
2017-11-16T01:53:16.237Z,39.78
2017-11-16T01:54:25.219Z,40.06
2017-11-16T01:55:34.332Z,39.97
2017-11-16T01:56:43.161Z,40.06
2017-11-16T01:57:51.994Z,40.05
2017-11-16T01:59:00.820Z,39.87
2017-11-16T02:00:09.835Z,40.06
2017-11-16T02:01:18.943Z,39.97
2017-11-16T02:02:27.774Z,40.06
2017-11-16T02:03:36.604Z,39.97
2017-11-16T02:04:45.432Z,39.95
2017-11-16T02:05:54.895Z,40.06
2017-11-16T02:07:04.565Z,39.97
2017-11-16T02:08:13.394Z,40.14
2017-11-16T02:09:22.223Z,39.76
2017-11-16T02:10:31.051Z,40.05
2017-11-16T02:11:40.182Z,39.95
2017-11-16T02:12:49.329Z,39.87
2017-11-16T02:13:58.158Z,40.05
2017-11-16T02:15:06.995Z,39.86
2017-11-16T02:16:16.103Z,40.14
2017-11-16T02:17:25.733Z,40.05
2017-11-16T02:18:34.567Z,39.87
2017-11-16T02:19:43.400Z,40.06
2017-11-16T02:20:52.227Z,39.97
2017-11-16T02:22:01.054Z,40.14
2017-11-16T02:23:09.885Z,39.95
2017-11-16T02:24:18.715Z,39.95
2017-11-16T02:25:27.543Z,39.95
2017-11-16T02:26:36.373Z,39.95
2017-11-16T02:27:45.202Z,39.95
2017-11-16T02:28:54.282Z,39.95
2017-11-16T02:30:03.128Z,39.95
2017-11-16T02:31:11.942Z,40.14
2017-11-16T02:32:21.055Z,40.05
2017-11-16T02:33:29.889Z,39.95
2017-11-16T02:34:38.877Z,40.05
2017-11-16T02:35:47.703Z,39.95
2017-11-16T02:36:56.538Z,39.95
2017-11-16T02:38:05.363Z,39.76
2017-11-16T02:39:14.192Z,39.86
2017-11-16T02:40:23.555Z,39.95
2017-11-16T02:41:32.949Z,39.95
2017-11-16T02:42:41.780Z,39.95
2017-11-16T02:43:50.623Z,40.05
2017-11-16T02:44:59.441Z,39.95
2017-11-16T02:46:08.423Z,40.05
2017-11-16T02:47:17.254Z,39.95
2017-11-16T02:48:26.090Z,40.14
2017-11-16T02:49:34.919Z,40.05
2017-11-16T02:50:43.752Z,40.05
2017-11-16T02:51:52.984Z,40.05
2017-11-16T02:53:02.355Z,39.95
2017-11-16T02:54:11.187Z,40.05
2017-11-16T02:55:20.022Z,40.05
2017-11-16T02:56:29.132Z,40.05
2017-11-16T02:57:37.958Z,40.06
2017-11-16T02:58:46.787Z,39.95
2017-11-16T02:59:55.617Z,39.86
2017-11-16T03:01:04.450Z,39.86
2017-11-16T03:02:13.613Z,40.05
2017-11-16T03:03:22.552Z,39.95
2017-11-16T03:04:31.382Z,39.95
2017-11-16T03:05:40.497Z,39.86
2017-11-16T03:06:49.328Z,39.95
2017-11-16T03:07:58.161Z,39.86
2017-11-16T03:09:07.040Z,39.95
2017-11-16T03:10:15.871Z,39.95
2017-11-16T03:11:24.993Z,39.95
2017-11-16T03:12:33.831Z,39.95
2017-11-16T03:13:42.650Z,39.95
2017-11-16T03:14:51.479Z,39.95
2017-11-16T03:16:00.309Z,39.97
2017-11-16T03:17:09.139Z,39.86
2017-11-16T03:18:17.968Z,40.05
2017-11-16T03:19:26.798Z,39.97
2017-11-16T03:20:35.908Z,40.14
2017-11-16T03:21:44.744Z,40.05
2017-11-16T03:22:53.570Z,39.86
2017-11-16T03:24:02.404Z,39.76
2017-11-16T03:25:11.521Z,40.05
2017-11-16T03:26:20.493Z,39.95
2017-11-16T03:27:29.323Z,39.95
2017-11-16T03:28:38.153Z,40.06
2017-11-16T03:29:46.988Z,39.97
2017-11-16T03:30:56.095Z,39.86
2017-11-16T03:32:05.076Z,39.97
2017-11-16T03:33:13.908Z,39.86
2017-11-16T03:34:22.739Z,39.86
2017-11-16T03:35:31.568Z,40.26
2017-11-16T03:36:40.397Z,39.87
2017-11-16T03:37:49.225Z,39.97
2017-11-16T03:38:58.059Z,39.87
2017-11-16T03:40:06.888Z,40.16
2017-11-16T03:41:15.717Z,40.06
2017-11-16T03:42:24.544Z,40.05
2017-11-16T03:43:33.702Z,40.16
2017-11-16T03:44:42.532Z,40.26
2017-11-16T03:45:51.363Z,39.87
2017-11-16T03:47:00.195Z,39.86
2017-11-16T03:48:09.025Z,40.06
2017-11-16T03:49:17.856Z,39.87
2017-11-16T03:50:26.684Z,40.06
2017-11-16T03:51:35.515Z,40.05
2017-11-16T03:52:44.349Z,40.05
2017-11-16T03:53:53.174Z,39.86
2017-11-16T03:55:02.205Z,40.26
2017-11-16T03:56:11.037Z,39.87
2017-11-16T03:57:19.869Z,40.05
2017-11-16T03:58:28.986Z,40.06
2017-11-16T03:59:37.815Z,40.06
2017-11-16T04:00:46.645Z,39.78
2017-11-16T04:01:55.477Z,40.26
2017-11-16T04:03:04.305Z,39.97
2017-11-16T04:04:13.149Z,40.26
2017-11-16T04:05:21.970Z,40.35
2017-11-16T04:06:30.800Z,39.95
2017-11-16T04:07:39.635Z,39.87
2017-11-16T04:08:48.747Z,39.87
2017-11-16T04:09:57.578Z,39.78
2017-11-16T04:11:06.407Z,40.26
2017-11-16T04:12:15.394Z,39.97
2017-11-16T04:13:24.231Z,40.16
2017-11-16T04:14:33.064Z,40.26
2017-11-16T04:15:41.897Z,40.16
2017-11-16T04:16:50.734Z,39.97
2017-11-16T04:17:59.566Z,40.06
2017-11-16T04:19:08.393Z,40.06
2017-11-16T04:20:17.505Z,40.16
2017-11-16T04:21:26.334Z,40.06
2017-11-16T04:22:35.164Z,40.16
2017-11-16T04:23:43.992Z,40.06
2017-11-16T04:24:52.823Z,40.16
2017-11-16T04:26:01.655Z,40.06
2017-11-16T04:27:10.489Z,40.16
2017-11-16T04:28:19.320Z,40.06
2017-11-16T04:29:28.453Z,40.16
2017-11-16T04:30:37.568Z,40.54
2017-11-16T04:31:46.404Z,40.73
2017-11-16T04:32:55.226Z,40.45
2017-11-16T04:34:04.059Z,40.45
2017-11-16T04:35:12.889Z,40.45
2017-11-16T04:36:21.719Z,40.45
2017-11-16T04:37:30.552Z,40.64
2017-11-16T04:38:39.381Z,40.92
2017-11-16T04:39:48.218Z,41.3
2017-11-16T04:40:57.095Z,40.92
2017-11-16T04:42:05.925Z,40.92
2017-11-16T04:43:14.760Z,41.3
2017-11-16T04:44:23.583Z,41.02
2017-11-16T04:45:32.698Z,41.11
2017-11-16T04:46:41.534Z,41.21
2017-11-16T04:47:50.362Z,41.21
2017-11-16T04:48:59.189Z,41.11
2017-11-16T04:50:08.021Z,41.09
2017-11-16T04:51:17.158Z,41.19
2017-11-16T04:52:26.036Z,41.21
2017-11-16T04:53:34.868Z,41.21
2017-11-16T04:54:43.697Z,41.11
2017-11-16T04:55:52.528Z,41.11
2017-11-16T04:57:01.651Z,41.21
2017-11-16T04:58:10.478Z,41.21
2017-11-16T04:59:19.305Z,41.4
2017-11-16T05:00:28.136Z,41.21
2017-11-16T05:01:36.967Z,41.11
2017-11-16T05:02:45.798Z,41.49
2017-11-16T05:03:54.629Z,41.21
2017-11-16T05:05:03.456Z,41.21
2017-11-16T05:06:12.289Z,41.21
2017-11-16T05:07:21.139Z,41.3
2017-11-16T05:08:30.252Z,41.02
2017-11-16T05:09:39.081Z,41.49
2017-11-16T05:10:47.911Z,41.78
2017-11-16T05:11:56.748Z,41.4
2017-11-16T05:13:05.579Z,41.4
2017-11-16T05:14:14.411Z,41.4
2017-11-16T05:15:23.340Z,41.38
2017-11-16T05:16:32.167Z,41.4
2017-11-16T05:17:40.998Z,41.02
2017-11-16T05:18:49.828Z,41.4
2017-11-16T05:19:58.660Z,41.3
2017-11-16T05:21:07.771Z,41.21
2017-11-16T05:22:16.875Z,41.38
2017-11-16T05:23:25.987Z,41.4
2017-11-16T05:24:34.820Z,41.47
2017-11-16T05:25:43.648Z,41.38
2017-11-16T05:26:52.484Z,41.4
2017-11-16T05:28:01.598Z,41.3
2017-11-16T05:29:10.426Z,41.28
2017-11-16T05:30:19.257Z,41.11
2017-11-16T05:31:28.087Z,41.02
2017-11-16T05:32:36.968Z,41.19
2017-11-16T05:33:45.799Z,41
2017-11-16T05:34:54.623Z,41.09
2017-11-16T05:36:03.454Z,41.02
2017-11-16T05:37:12.285Z,41.11
2017-11-16T05:38:21.414Z,41.3
2017-11-16T05:39:30.244Z,41.11
2017-11-16T05:40:39.356Z,41.21
2017-11-16T05:41:48.186Z,41.02
2017-11-16T05:42:57.015Z,41.11
2017-11-16T05:44:06.000Z,41.21
2017-11-16T05:45:14.830Z,41.11
2017-11-16T05:46:23.664Z,41.02
2017-11-16T05:47:32.493Z,41.02
2017-11-16T05:48:41.321Z,41.11
2017-11-16T05:49:50.303Z,41.11
2017-11-16T05:50:59.134Z,41.11
2017-11-16T05:52:07.967Z,41.11
2017-11-16T05:53:16.798Z,41.11
2017-11-16T05:54:25.677Z,41.02
2017-11-16T05:55:34.558Z,40.92
2017-11-16T05:56:43.389Z,41.11
2017-11-16T05:57:52.221Z,41.11
2017-11-16T05:59:01.333Z,41.02
2017-11-16T06:00:10.447Z,41.11
2017-11-16T06:01:19.382Z,41.21
2017-11-16T06:02:28.214Z,41.11
2017-11-16T06:03:37.332Z,41.3
2017-11-16T06:04:46.161Z,41.21
2017-11-16T06:05:54.992Z,41.02
2017-11-16T06:07:03.823Z,41.21
2017-11-16T06:08:12.654Z,41.11
2017-11-16T06:09:21.488Z,41.21
2017-11-16T06:10:30.317Z,41.02
2017-11-16T06:11:39.148Z,41.02
2017-11-16T06:12:48.312Z,41.02
2017-11-16T06:13:57.145Z,41.02
2017-11-16T06:15:05.977Z,41.4
2017-11-16T06:16:15.091Z,40.92
2017-11-16T06:17:23.929Z,41.4
2017-11-16T06:18:33.195Z,41.4
2017-11-16T06:19:42.020Z,41.3
2017-11-16T06:20:50.848Z,41.4
2017-11-16T06:21:59.677Z,41.69
2017-11-16T06:23:08.558Z,41.97
2017-11-16T06:24:17.492Z,41.69
2017-11-16T06:25:26.322Z,42.35
2017-11-16T06:26:35.153Z,42.25
2017-11-16T06:27:44.270Z,42.54
2017-11-16T06:28:53.106Z,42.25
2017-11-16T06:30:01.989Z,42.07
2017-11-16T06:31:10.825Z,42.64
2017-11-16T06:32:19.648Z,42.07
2017-11-16T06:33:28.480Z,42.64
2017-11-16T06:34:37.315Z,43.02
2017-11-16T06:35:46.820Z,42.64
2017-11-16T06:36:55.652Z,42.73
2017-11-16T06:38:04.481Z,43.02
2017-11-16T06:39:13.312Z,43.02
2017-11-16T06:40:22.143Z,42.92
2017-11-16T06:41:31.021Z,42.25
2017-11-16T06:42:39.854Z,43.02
2017-11-16T06:43:48.687Z,42.92
2017-11-16T06:44:57.520Z,42.83
2017-11-16T06:46:06.353Z,43.11
2017-11-16T06:47:15.282Z,43.21
2017-11-16T06:48:24.110Z,43.3
2017-11-16T06:49:32.942Z,43.11
2017-11-16T06:50:41.774Z,43.11
2017-11-16T06:51:50.605Z,43.11
2017-11-16T06:52:59.534Z,43.21
2017-11-16T06:54:08.365Z,43.3
2017-11-16T06:55:17.197Z,43.4
2017-11-16T06:56:26.034Z,43.21
2017-11-16T06:57:34.861Z,43.59
2017-11-16T06:58:43.745Z,43.68
2017-11-16T06:59:52.582Z,43.49
2017-11-16T07:01:01.410Z,43.49
2017-11-16T07:02:10.241Z,43.19
2017-11-16T07:03:19.074Z,43.47
2017-11-16T07:04:27.905Z,43.4
2017-11-16T07:05:36.734Z,43.49
2017-11-16T07:06:45.574Z,43.78
2017-11-16T07:07:54.684Z,43.49
2017-11-16T07:09:03.515Z,43.59
2017-11-16T07:10:12.774Z,43.85
2017-11-16T07:11:21.606Z,43.09
2017-11-16T07:12:30.439Z,43.78
2017-11-16T07:13:39.549Z,43.11
2017-11-16T07:14:48.381Z,43.28
2017-11-16T07:15:57.511Z,43.49
2017-11-16T07:17:06.344Z,43.87
2017-11-16T07:18:15.273Z,43.3
2017-11-16T07:19:24.105Z,43.3
2017-11-16T07:20:32.937Z,43.97
2017-11-16T07:21:42.019Z,43.49
2017-11-16T07:22:51.167Z,43.57
2017-11-16T07:23:59.999Z,43.11
2017-11-16T07:25:08.928Z,42.99
2017-11-16T07:26:18.037Z,43.59
2017-11-16T07:27:26.967Z,43.68
2017-11-16T07:28:35.799Z,43.87
2017-11-16T07:29:44.628Z,43.76
2017-11-16T07:30:53.460Z,43.66
2017-11-16T07:32:02.580Z,43.47
2017-11-16T07:33:11.513Z,43.19
2017-11-16T07:34:20.348Z,43.57
2017-11-16T07:35:29.180Z,43.38
2017-11-16T07:36:38.297Z,43.57
2017-11-16T07:37:47.403Z,43.57
2017-11-16T07:38:56.231Z,43.57
2017-11-16T07:40:05.061Z,43.57
2017-11-16T07:41:13.897Z,43.57
2017-11-16T07:42:23.005Z,43.57
2017-11-16T07:43:31.835Z,43.57
2017-11-16T07:44:40.768Z,43.57
2017-11-16T07:45:49.600Z,43.66
2017-11-16T07:46:58.448Z,43.47
2017-11-16T07:48:07.834Z,43.66
2017-11-16T07:49:16.664Z,43.66
2017-11-16T07:50:25.746Z,44.04
2017-11-16T07:51:34.578Z,43.38
2017-11-16T07:52:43.409Z,43.76
2017-11-16T07:53:52.521Z,43.85
2017-11-16T07:55:01.353Z,43.66
2017-11-16T07:56:10.242Z,44.04
2017-11-16T07:57:19.073Z,44.04
2017-11-16T07:58:27.913Z,44.04
2017-11-16T07:59:36.742Z,44.13
2017-11-16T08:00:45.574Z,44.52
2017-11-16T08:01:54.705Z,45.09
2017-11-16T08:03:03.533Z,44.52
2017-11-16T08:04:12.364Z,44.52
2017-11-16T08:05:21.473Z,44.52
2017-11-16T08:06:30.305Z,44.71
2017-11-16T08:07:39.717Z,44.8
2017-11-16T08:08:48.547Z,44.71
2017-11-16T08:09:57.378Z,44.8
2017-11-16T08:11:06.210Z,45.18
2017-11-16T08:12:15.038Z,45.56
2017-11-16T08:13:23.869Z,45.09
2017-11-16T08:14:32.699Z,45.37
2017-11-16T08:15:41.542Z,45.47
2017-11-16T08:16:50.364Z,45.18
2017-11-16T08:17:59.196Z,45
2017-11-16T08:19:08.190Z,45.37
2017-11-16T08:20:17.009Z,45.47
2017-11-16T08:21:25.841Z,45.28
2017-11-16T08:22:34.671Z,45.37
2017-11-16T08:23:43.502Z,45.28
2017-11-16T08:24:52.435Z,45.47
2017-11-16T08:26:01.268Z,45.66
2017-11-16T08:27:10.102Z,45.66
2017-11-16T08:28:19.212Z,45.37
2017-11-16T08:29:28.044Z,45.47
2017-11-16T08:30:37.026Z,45.47
2017-11-16T08:31:45.856Z,45.37
2017-11-16T08:32:54.694Z,45.37
2017-11-16T08:34:03.517Z,45.37
2017-11-16T08:35:12.346Z,45.18
2017-11-16T08:36:21.579Z,45.18
2017-11-16T08:37:30.410Z,45.37
2017-11-16T08:38:39.522Z,45.37
2017-11-16T08:39:48.353Z,45.37
2017-11-16T08:40:57.186Z,45.37
2017-11-16T08:42:06.216Z,45.09
2017-11-16T08:43:15.047Z,44.9
2017-11-16T08:44:23.879Z,45.47
2017-11-16T08:45:32.719Z,45.18
2017-11-16T08:46:41.833Z,45
2017-11-16T08:47:50.816Z,45
2017-11-16T08:48:59.644Z,44.71
2017-11-16T08:50:08.477Z,44.9
2017-11-16T08:51:17.308Z,45
2017-11-16T08:52:26.141Z,45.47
2017-11-16T08:53:35.024Z,45.47
2017-11-16T08:54:43.856Z,45.18
2017-11-16T08:55:52.689Z,45.37
2017-11-16T08:57:01.519Z,45.47
2017-11-16T08:58:10.353Z,45.18
2017-11-16T08:59:19.284Z,45
2017-11-16T09:00:28.116Z,45.09
2017-11-16T09:01:36.945Z,45.09
2017-11-16T09:02:45.777Z,44.71
2017-11-16T09:03:54.612Z,45.09
2017-11-16T09:05:03.493Z,45.56
2017-11-16T09:06:12.325Z,45.18
2017-11-16T09:07:21.713Z,44.9
2017-11-16T09:08:30.543Z,45.18
2017-11-16T09:09:39.371Z,45.18
2017-11-16T09:10:48.548Z,45
2017-11-16T09:11:57.377Z,45.18
2017-11-16T09:13:06.209Z,45.18
2017-11-16T09:14:15.044Z,45.09
2017-11-16T09:15:23.871Z,45.09
2017-11-16T09:16:32.703Z,45.18
2017-11-16T09:17:41.532Z,45.66
2017-11-16T09:18:50.363Z,45.37
2017-11-16T09:19:59.196Z,45.28
2017-11-16T09:21:08.027Z,45.37
2017-11-16T09:22:16.959Z,45
2017-11-16T09:23:25.792Z,45.37
2017-11-16T09:24:34.626Z,44.8
2017-11-16T09:25:43.459Z,45.37
2017-11-16T09:26:52.287Z,45.37
2017-11-16T09:28:01.390Z,45.37
2017-11-16T09:29:10.509Z,45.28
2017-11-16T09:30:19.336Z,45.28
2017-11-16T09:31:28.455Z,45.37
2017-11-16T09:32:37.568Z,45.47
2017-11-16T09:33:46.981Z,45.37
2017-11-16T09:34:55.813Z,45.47
2017-11-16T09:36:04.656Z,45.28
2017-11-16T09:37:13.476Z,45.28
2017-11-16T09:38:22.310Z,45.66
2017-11-16T09:39:31.137Z,45.37
2017-11-16T09:40:39.968Z,44.9
2017-11-16T09:41:48.797Z,45.28
2017-11-16T09:42:57.629Z,45.18
2017-11-16T09:44:06.461Z,45.37
2017-11-16T09:45:15.692Z,45.28
2017-11-16T09:46:24.523Z,44.9
2017-11-16T09:47:33.631Z,45.37
2017-11-16T09:48:42.463Z,45.37
2017-11-16T09:49:51.293Z,45.37
2017-11-16T09:51:00.850Z,45.37
2017-11-16T09:52:09.681Z,45.56
2017-11-16T09:53:18.511Z,45.37
2017-11-16T09:54:27.346Z,45.18
2017-11-16T09:55:36.453Z,45.37
2017-11-16T09:56:45.332Z,45.47
2017-11-16T09:57:54.164Z,45.28
2017-11-16T09:59:02.997Z,45.18
2017-11-16T10:00:11.827Z,45.56
2017-11-16T10:01:20.657Z,45.28
2017-11-16T10:02:29.837Z,45.37
2017-11-16T10:03:38.670Z,45.37
2017-11-16T10:04:47.501Z,45
2017-11-16T10:05:56.332Z,45.47
2017-11-16T10:07:05.159Z,45.09
2017-11-16T10:08:14.089Z,44.71
2017-11-16T10:09:22.922Z,44.71
2017-11-16T10:10:31.755Z,44.71
2017-11-16T10:11:40.586Z,45
2017-11-16T10:12:49.419Z,44.42
2017-11-16T10:13:58.634Z,44.52
2017-11-16T10:15:07.465Z,44.71
2017-11-16T10:16:16.298Z,44.13
2017-11-16T10:17:25.418Z,43.76
2017-11-16T10:18:34.254Z,43.95
2017-11-16T10:19:43.540Z,43.66
2017-11-16T10:20:52.370Z,43.38
2017-11-16T10:22:01.199Z,43.66
2017-11-16T10:23:10.031Z,43.28
2017-11-16T10:24:18.865Z,42.99
2017-11-16T10:25:28.043Z,43.09
2017-11-16T10:26:36.874Z,43.19
2017-11-16T10:27:45.707Z,43.09
2017-11-16T10:28:54.544Z,43.09
2017-11-16T10:30:03.370Z,43.19
2017-11-16T10:31:12.401Z,43.19
2017-11-16T10:32:21.234Z,43.09
2017-11-16T10:33:30.065Z,43.09
2017-11-16T10:34:38.895Z,42.99
2017-11-16T10:35:48.012Z,43.28
2017-11-16T10:36:56.995Z,43.19
2017-11-16T10:38:05.827Z,42.8
2017-11-16T10:39:14.937Z,43.19
2017-11-16T10:40:23.774Z,42.8
2017-11-16T10:41:32.876Z,43.09
2017-11-16T10:42:41.759Z,43.09
2017-11-16T10:43:50.586Z,43.09
2017-11-16T10:44:59.418Z,43.19
2017-11-16T10:46:08.249Z,43.09
2017-11-16T10:47:17.359Z,43.09
2017-11-16T10:48:26.239Z,43.19
2017-11-16T10:49:35.069Z,43.38
2017-11-16T10:50:43.899Z,42.8
2017-11-16T10:51:53.008Z,43.09
2017-11-16T10:53:01.841Z,43.09
2017-11-16T10:54:10.972Z,43.28
2017-11-16T10:55:19.800Z,43.09
2017-11-16T10:56:28.631Z,42.9
2017-11-16T10:57:37.464Z,43.19
2017-11-16T10:58:46.335Z,42.99
2017-11-16T10:59:55.735Z,43.09
2017-11-16T11:01:04.568Z,43.09
2017-11-16T11:02:13.440Z,43.09
2017-11-16T11:03:22.511Z,43.09
2017-11-16T11:04:31.343Z,43.09
2017-11-16T11:05:40.426Z,43.66
2017-11-16T11:06:49.257Z,43.66
2017-11-16T11:07:58.088Z,43.38
2017-11-16T11:09:06.919Z,43.19
2017-11-16T11:10:15.752Z,42.9
2017-11-16T11:11:24.682Z,43.47
2017-11-16T11:12:33.795Z,43.85
2017-11-16T11:13:42.627Z,44.04
2017-11-16T11:14:51.460Z,43.95
2017-11-16T11:16:00.290Z,44.13
2017-11-16T11:17:09.176Z,43.76
2017-11-16T11:18:18.009Z,45
2017-11-16T11:19:26.841Z,44.8
2017-11-16T11:20:35.676Z,45.49
2017-11-16T11:21:44.507Z,45.09
2017-11-16T11:22:53.386Z,45.3
2017-11-16T11:24:02.501Z,44.92
2017-11-16T11:25:11.334Z,44.92
2017-11-16T11:26:20.168Z,45.3
2017-11-16T11:27:29.002Z,45.01
2017-11-16T11:28:38.085Z,45.97
2017-11-16T11:29:46.919Z,45.59
2017-11-16T11:30:55.753Z,45.68
2017-11-16T11:32:04.864Z,46.83
2017-11-16T11:33:13.695Z,46.83
2017-11-16T11:34:22.931Z,46.63
2017-11-16T11:35:31.764Z,47.39
2017-11-16T11:36:40.595Z,47.49
2017-11-16T11:37:49.427Z,48.16
2017-11-16T11:38:58.258Z,49.01
2017-11-16T11:40:07.242Z,48.92
2017-11-16T11:41:16.074Z,49.68
2017-11-16T11:42:24.908Z,49.58
2017-11-16T11:43:34.069Z,50.54
2017-11-16T11:44:42.901Z,50.54
2017-11-16T11:45:51.941Z,52.63
2017-11-16T11:47:01.062Z,53.01
2017-11-16T11:48:09.893Z,53.2
2017-11-16T11:49:18.729Z,53.3
2017-11-16T11:50:27.840Z,53.11
2017-11-16T11:51:36.772Z,53.11
2017-11-16T11:52:45.882Z,53.2
2017-11-16T11:53:54.710Z,53.2
2017-11-16T11:55:03.542Z,53.58
2017-11-16T11:56:12.373Z,54.63
2017-11-16T11:57:21.206Z,54.72
2017-11-16T11:58:30.317Z,55.01
2017-11-16T11:59:39.149Z,54.53
2017-11-16T12:00:47.980Z,54.53
2017-11-16T12:01:56.809Z,54.06
2017-11-16T12:03:05.844Z,54.53
2017-11-16T12:04:14.676Z,54.72
2017-11-16T12:05:23.510Z,54.44
2017-11-16T12:06:32.940Z,54.06
2017-11-16T12:07:41.771Z,54.53
2017-11-16T12:08:50.704Z,56.05
2017-11-16T12:09:59.540Z,56.72
2017-11-16T12:11:08.651Z,56.92
2017-11-16T12:12:17.482Z,55.87
2017-11-16T12:13:26.312Z,55.87
2017-11-16T12:14:35.347Z,55.96
2017-11-16T12:15:44.180Z,56.24
2017-11-16T12:16:53.010Z,56.15
2017-11-16T12:18:01.845Z,55.96
2017-11-16T12:19:10.676Z,56.34
2017-11-16T12:20:19.607Z,56.63
2017-11-16T12:21:29.008Z,56.82
2017-11-16T12:22:37.837Z,56.15
2017-11-16T12:23:46.668Z,56.24
2017-11-16T12:24:55.500Z,57.01
2017-11-16T12:26:04.439Z,56.05
2017-11-16T12:27:13.264Z,56.72
2017-11-16T12:28:22.096Z,56.82
2017-11-16T12:29:30.926Z,56.82
2017-11-16T12:30:39.758Z,56.53
2017-11-16T12:31:49.181Z,56.82
2017-11-16T12:32:58.017Z,57.2
2017-11-16T12:34:07.124Z,57.1
2017-11-16T12:35:15.955Z,56.63
2017-11-16T12:36:24.785Z,56.63
2017-11-16T12:37:33.719Z,56.92
2017-11-16T12:38:42.551Z,57.1
2017-11-16T12:39:51.381Z,56.92
2017-11-16T12:41:00.213Z,57.01
2017-11-16T12:42:09.043Z,56.53
2017-11-16T12:43:17.925Z,56.72
2017-11-16T12:44:26.757Z,57.01
2017-11-16T12:45:35.600Z,56.44
2017-11-16T12:46:44.422Z,57.2
2017-11-16T12:47:53.256Z,57.01
2017-11-16T12:49:02.088Z,56.82
2017-11-16T12:50:10.917Z,57.01
2017-11-16T12:51:19.747Z,57.87
2017-11-16T12:52:28.579Z,57.77
2017-11-16T12:53:37.688Z,57.48
2017-11-16T12:54:46.670Z,57.87
2017-11-16T12:55:55.501Z,57.67
2017-11-16T12:57:04.331Z,57.96
2017-11-16T12:58:13.163Z,57.96
2017-11-16T12:59:21.995Z,58.15
2017-11-16T13:00:31.029Z,58.72
2017-11-16T13:01:40.152Z,58.53
2017-11-16T13:02:48.975Z,58.44
2017-11-16T13:03:57.809Z,58.53
2017-11-16T13:05:06.641Z,58.56
2017-11-16T13:06:15.571Z,58.72
2017-11-16T13:07:24.402Z,57.87
2017-11-16T13:08:33.236Z,58.65
2017-11-16T13:09:42.347Z,58.65
2017-11-16T13:10:51.180Z,59.1
2017-11-16T13:12:00.545Z,58.75
2017-11-16T13:13:09.664Z,59.1
2017-11-16T13:14:18.498Z,59.77
2017-11-16T13:15:27.331Z,60.05
2017-11-16T13:16:36.165Z,60.44
2017-11-16T13:17:45.197Z,61.1
2017-11-16T13:18:54.027Z,60.91
2017-11-16T13:20:02.857Z,61.19
2017-11-16T13:21:11.688Z,61.13
2017-11-16T13:22:20.521Z,61.32
2017-11-16T13:23:29.454Z,61.32
2017-11-16T13:24:38.286Z,61.13
2017-11-16T13:25:47.119Z,61.8
2017-11-16T13:26:55.952Z,61.51
2017-11-16T13:28:05.076Z,61.8
2017-11-16T13:29:13.963Z,61.51
2017-11-16T13:30:22.794Z,61.9
2017-11-16T13:31:31.910Z,61.51
2017-11-16T13:32:40.743Z,62.27
2017-11-16T13:33:49.573Z,63.99
2017-11-16T13:34:58.457Z,64.47
2017-11-16T13:36:07.287Z,64.37
2017-11-16T13:37:16.125Z,64.18
2017-11-16T13:38:24.971Z,64.65
2017-11-16T13:39:33.810Z,64.28
2017-11-16T13:40:42.744Z,64.94
2017-11-16T13:41:51.587Z,64.94
2017-11-16T13:43:00.427Z,65.23
2017-11-16T13:44:09.550Z,64.94
2017-11-16T13:45:18.400Z,65.51
2017-11-16T13:46:27.346Z,65.23
2017-11-16T13:47:36.185Z,65.32
2017-11-16T13:48:45.026Z,65.13
2017-11-16T13:49:53.866Z,66.18
2017-11-16T13:51:02.707Z,65.7
2017-11-16T13:52:11.637Z,65.8
2017-11-16T13:53:20.475Z,65.99
2017-11-16T13:54:29.305Z,66.94
2017-11-16T13:55:38.136Z,67.22
2017-11-16T13:56:46.970Z,67.32
2017-11-16T13:57:55.853Z,67.7
2017-11-16T13:59:04.685Z,67.32
2017-11-16T14:00:14.405Z,67.13
2017-11-16T14:01:23.236Z,67.32
2017-11-16T14:02:32.070Z,68.27
2017-11-16T14:03:40.908Z,68.37
2017-11-16T14:04:49.753Z,69.42
2017-11-16T14:05:58.879Z,69.04
2017-11-16T14:07:07.722Z,69.23
2017-11-16T14:08:16.562Z,69.04
2017-11-16T14:09:25.493Z,69.04
2017-11-16T14:10:34.326Z,69.13
2017-11-16T14:11:43.159Z,68.56
2017-11-16T14:12:51.991Z,68.75
2017-11-16T14:14:00.825Z,69.23
2017-11-16T14:15:09.756Z,69.23
2017-11-16T14:16:18.587Z,69.13
2017-11-16T14:17:27.418Z,69.42
2017-11-16T14:18:36.250Z,68.65
2017-11-16T14:19:45.082Z,69.13
2017-11-16T14:20:53.912Z,68.56
2017-11-16T14:22:02.744Z,69.42
2017-11-16T14:23:11.577Z,69.32
2017-11-16T14:24:20.418Z,68.94
2017-11-16T14:25:29.255Z,69.51
2017-11-16T14:26:38.367Z,69.51
2017-11-16T14:27:47.202Z,69.6
2017-11-16T14:28:56.036Z,69.79
2017-11-16T14:30:05.153Z,69.51
2017-11-16T14:31:13.988Z,69.6
2017-11-16T14:32:22.915Z,69.04
2017-11-16T14:33:32.045Z,69.23
2017-11-16T14:34:40.866Z,69.23
2017-11-16T14:35:49.711Z,69.51
2017-11-16T14:36:58.538Z,69.7
2017-11-16T14:38:07.625Z,69.13
2017-11-16T14:39:16.457Z,69.23
2017-11-16T14:40:25.290Z,68.84
2017-11-16T14:41:34.189Z,69.79
2017-11-16T14:42:43.313Z,69.7
2017-11-16T14:43:52.458Z,69.6
2017-11-16T14:45:01.287Z,69.79
2017-11-16T14:46:10.143Z,69.51
2017-11-16T14:47:19.009Z,69.6
2017-11-16T14:48:28.407Z,69.99
2017-11-16T14:49:37.443Z,69.6
2017-11-16T14:50:46.511Z,69.13